Metar Report
Metar
METAR KTYQ 210856Z AUTO 22009KT 10SM CLR M03/M04 A3021 A02 3161
METAR KTYQ 210756Z AUTO 24009KT 10SM SCT023 M03/M04 A3022 A02 3160
METAR KTYQ 210656Z AUTO 25008G15KT 10SM OVC021 M03/M04 A3022 A02 3159
METAR KTYQ 210556Z AUTO 24011KT 10SM BKN021 M03/M04 A3022 A02 3158
METAR KTYQ 210456Z AUTO 25010G14KT 10SM CLR M03/M04 A3022 A02 3157
METAR KTYQ 210356Z AUTO 24009G14KT 10SM CLR M03/M04 A3022 A02 3156
METAR KTYQ 210256Z AUTO 23008KT 10SM SCT023 M02/M04 A3022 A02 3155
METAR KTYQ 210156Z AUTO 24005KT 10SM CLR M02/M04 A3022 A02 3154
METAR KTYQ 210056Z AUTO 24007KT 10SM CLR M02/M04 A3022 A02 3153
METAR KTYQ 202356Z AUTO 23010G14KT 10SM OVC027 M01/M04 A3022 A02 3152
METAR KTYQ 202256Z AUTO 25007KT 10SM OVC027 00/M03 A3022 A02 3151
METAR KTYQ 202156Z AUTO 26009KT 10SM OVC029 01/M04 A3022 A02 3150
METAR KTYQ 202056Z AUTO 27007KT 10SM BKN021 BKN027 00/M03 A3022 A02 3149
METAR KTYQ 201956Z AUTO 28005KT 10SM OVC019 01/M02 A3022 A02 3148
METAR KTYQ 201902Z AUTO 28007KT 10SM OVC015 00/M02 A3022 A02 3147
METAR KTYQ 201856Z AUTO 27008KT 10SM OVC013 00/M02 A3022 A02 3146
METAR KTYQ 201756Z AUTO 27009KT 10SM OVC013 00/M02 A3023 A02 3145
METAR KTYQ 201656Z AUTO 28008KT 7SM OVC011 00/M02 A3024 A02 3144
METAR KTYQ 201556Z AUTO 28008KT 5SM BR OVC011 M01/M02 A3023 A02 3143
METAR KTYQ 201456Z AUTO 29006KT 5SM BR OVC009 M01/M02 A3021 A02 3142
METAR KTYQ 201404Z AUTO 29007KT 4SM BR OVC006 M01/M01 A3019 A02 3141
METAR KTYQ 201356Z AUTO 29008KT 3SM BR OVC006 M01/M01 A3018 A02 3140
METAR KTYQ 201256Z AUTO 29006KT 4SM BR OVC006 M01/M01 A3016 A02 3139
METAR KTYQ 201156Z AUTO 30007KT 3SM BR BKN006 OVC009 M01/M01 A3013 A02 3138
METAR KTYQ 201056Z AUTO 30008KT 7SM SCT010 OVC017 00/M01 A3011 A02 3137
METAR KTYQ 200956Z AUTO 29006KT 3SM BR OVC005 00/00 A3009 A02 3136
METAR KTYQ 200856Z AUTO 27008KT 3SM BR OVC005 01/01 A3008 A02 3135
METAR KTYQ 200756Z AUTO 26005KT 4SM -DZ OVC007 01/01 A3008 A02 3134
METAR KTYQ 200656Z AUTO 25004KT 4SM -SN SCT007 BKN014 OVC019 01/01 A3007 A02 3133
METAR KTYQ 200556Z AUTO 26006KT 5SM BR SCT007 BKN016 OVC022 01/01 A3008 A02 3132
METAR KTYQ 200456Z AUTO 29003KT 7SM SCT035 SCT042 OVC100 01/00 A3007 A02 3131
METAR KTYQ 200356Z AUTO 29006KT 7SM BKN008 OVC015 01/01 A3008 A02 3130
METAR KTYQ 200256Z AUTO 26007KT 7SM OVC017 01/01 A3007 A02 3129
METAR KTYQ 200156Z AUTO 25004KT 7SM BKN047 BKN065 OVC075 01/01 A3007 A02 3128
METAR KTYQ 200056Z AUTO 28003KT 7SM BKN110 01/00 A3006 A02 3127
METAR KTYQ 192356Z AUTO 29004KT 7SM SCT015 BKN050 01/01 A3006 A02 3126
METAR KTYQ 192256Z AUTO 28005KT 10SM SCT015 BKN050 BKN120 02/01 A3004 A02 3125
METAR KTYQ 192156Z AUTO 30005KT 10SM OVC015 02/01 A3003 A02 3124
METAR KTYQ 192056Z AUTO 30005KT 7SM OVC013 03/02 A3003 A02 3123
METAR KTYQ 191956Z AUTO 31004KT 5SM BR OVC007 03/02 A3002 A02 3122
METAR KTYQ 191856Z AUTO 36003KT 5SM BR OVC005 02/02 A3002 A02 3121
METAR KTYQ 191756Z AUTO 03003KT 5SM BR OVC005 02/02 A3003 A02 3120
METAR KTYQ 191656Z AUTO 01004KT 4SM BR BKN005 OVC011 01/01 A3006 A02 3119
METAR KTYQ 191556Z AUTO 00000KT 3SM DZ BKN003 OVC011 01/01 A3008 A02 3118
METAR KTYQ 191456Z AUTO 36005KT 2SM -DZ OVC003 00/00 A3007 A02 3117
METAR KTYQ 191400Z AUTO 01003KT 1 3/4SM BR OVC003 00/00 A3008 A02 3116
METAR KTYQ 191356Z AUTO 02003KT 1 3/4SM BR OVC003 00/00 A3008 A02 3115
METAR KTYQ 191256Z AUTO 00000KT 2 1/2SM BR OVC001 M01/M01 A3007 A02 3114
METAR KTYQ 191156Z AUTO 00000KT 3SM -SN OVC001 M01/M01 A3009 A02 3113
METAR KTYQ 191056Z AUTO 00000KT 1 3/4SM -SN OVC001 M01/M01 A3010 A02 P0002 3112
METAR KTYQ 190956Z AUTO 00000KT 1 1/2SM -SN OVC003 M01/M01 A3011 A02 P0004 3111
METAR KTYQ 190856Z AUTO 00000KT 2 1/2SM -RA BKN003 OVC009 00/00 A3012 A02 P0002 3110
METAR KTYQ 190756Z AUTO 04005KT 2 1/2SM -SN OVC003 01/01 A3012 A02 P0002 3109
METAR KTYQ 190656Z AUTO 05003KT 3SM -RA OVC005 01/01 A3013 A02 3108
METAR KTYQ 190556Z AUTO 02005KT 5SM BR OVC007 01/01 A3014 A02 3107
METAR KTYQ 190456Z AUTO 01003KT 7SM OVC007 02/01 A3016 A02 3106
METAR KTYQ 190356Z AUTO 02004KT 7SM OVC009 02/01 A3016 A02 3105
METAR KTYQ 190256Z AUTO 35003KT 7SM OVC011 02/02 A3017 A02 3104
METAR KTYQ 190156Z AUTO 36004KT 7SM OVC007 02/02 A3018 A02 3103
METAR KTYQ 190056Z AUTO 01003KT 7SM OVC009 02/02 A3019 A02 3102
METAR KTYQ 182356Z AUTO 35006KT 7SM OVC007 02/02 A3019 A02 3101
METAR KTYQ 182256Z AUTO 34005KT 7SM OVC009 03/02 A3018 A02 3100
METAR KTYQ 182223Z AUTO 34005KT 5SM BR OVC009 03/02 A3017 A02 3099
METAR KTYQ 182156Z AUTO 34006KT 5SM BR OVC009 03/02 A3017 A02 3098
METAR KTYQ 182056Z AUTO 35006KT 4SM BR OVC009 03/03 A3016 A02 3097
METAR KTYQ 181956Z AUTO 36008KT 4SM BR OVC007 03/03 A3016 A02 3096
METAR KTYQ 181856Z AUTO 01005KT 4SM BR OVC009 04/03 A3017 A02 3095
METAR KTYQ 181756Z AUTO 01005KT 3SM BR OVC007 03/03 A3019 A02 3094
METAR KTYQ 181656Z AUTO 01006KT 3SM BR OVC007 03/02 A3021 A02 3093
METAR KTYQ 181556Z AUTO 05005KT 3SM BR OVC005 03/02 A3022 A02 3092
METAR KTYQ 181456Z AUTO 05007KT 2 1/2SM BR OVC005 02/02 A3021 A02 3091
METAR KTYQ 181356Z AUTO 04005KT 2 1/2SM BR OVC005 02/02 A3021 A02 3090
METAR KTYQ 181256Z AUTO 04007KT 3SM BR BKN005 BKN012 OVC037 02/02 A3019 A02 3089
METAR KTYQ 181156Z AUTO 05005KT 3SM BR BKN005 OVC036 02/02 A3019 A02 3088
METAR KTYQ 181056Z AUTO 05006KT 3SM BR SCT005 OVC040 02/02 A3019 A02 3087
METAR KTYQ 180956Z AUTO 05005KT 4SM BR SCT005 OVC040 02/02 A3019 A02 3086
METAR KTYQ 180856Z AUTO 05006KT 4SM BR OVC036 02/02 A3021 A02 3085
METAR KTYQ 180756Z AUTO 05005KT 5SM BR OVC038 02/02 A3022 A02 3084
METAR KTYQ 180656Z AUTO 06004KT 5SM BR OVC042 02/02 A3022 A02 3083
METAR KTYQ 180556Z AUTO 07005KT 5SM BR BKN045 OVC050 02/02 A3023 A02 3082
METAR KTYQ 180456Z AUTO 07004KT 7SM OVC047 02/02 A3024 A02 3081
METAR KTYQ 180356Z AUTO 08004KT 7SM OVC060 02/01 A3025 A02 3080
METAR KTYQ 180256Z AUTO 06005KT 7SM OVC070 02/01 A3026 A02 3079
METAR KTYQ 180156Z AUTO 06004KT 10SM OVC080 02/01 A3025 A02 3078
METAR KTYQ 180056Z AUTO 06005KT 10SM -DZ SCT060 OVC070 02/01 A3026 A02 3077
METAR KTYQ 172356Z AUTO 07003KT 10SM BKN070 OVC090 02/01 A3025 A02 3076
METAR KTYQ 172256Z AUTO 06005KT 10SM SCT070 OVC080 03/01 A3024 A02 3075
METAR KTYQ 172156Z AUTO 07005KT 7SM SCT049 SCT065 BKN080 04/01 A3024 A02 3074
METAR KTYQ 172056Z AUTO 02005KT 10SM SCT022 BKN040 BKN070 04/02 A3023 A02 3073
METAR KTYQ 171956Z AUTO 08004KT 10SM SCT020 06/02 A3023 A02 3072
METAR KTYQ 171856Z AUTO 19003KT 10SM CLR 04/01 A3024 A02 3071
METAR KTYQ 171756Z AUTO 22003KT 7SM BKN014 04/01 A3024 A02 3070
METAR KTYQ 171656Z AUTO 14006KT 5SM BR SCT012 03/01 A3024 A02 3069
METAR KTYQ 171556Z AUTO 16008KT 5SM BR OVC012 02/00 A3026 A02 3068
METAR KTYQ 171456Z AUTO 15006KT 5SM BR OVC012 01/00 A3026 A02 3067
METAR KTYQ 171356Z AUTO 15005KT 5SM BR OVC012 01/00 A3025 A02 3066
METAR KTYQ 171256Z AUTO 11003KT 5SM BR OVC010 00/M01 A3023 A02 3065
METAR KTYQ 171156Z AUTO 11003KT 7SM OVC010 00/M01 A3023 A02 3064
METAR KTYQ 171056Z AUTO 00000KT 7SM OVC008 00/M01 A3023 A02 3063
METAR KTYQ 170956Z AUTO 00000KT 7SM OVC008 00/M01 A3022 A02 3062
METAR KTYQ 170856Z AUTO 29003KT 7SM OVC008 00/M01 A3022 A02 3061
METAR KTYQ 170756Z AUTO 00000KT 7SM OVC008 00/M01 A3019 A02 3060
METAR KTYQ 170656Z AUTO 24005KT 7SM OVC010 00/M01 A3019 A02 3059
METAR KTYQ 170556Z AUTO 25005KT 10SM OVC012 01/M01 A3017 A02 3058
METAR KTYQ 170456Z AUTO 28004KT 10SM OVC012 01/M01 A3016 A02 3057
METAR KTYQ 170356Z AUTO 28003KT 10SM OVC014 01/M01 A3014 A02 3056
METAR KTYQ 170256Z AUTO 25003KT 10SM OVC014 01/00 A3014 A02 3055
METAR KTYQ 170156Z AUTO 27005KT 10SM OVC014 01/00 A3013 A02 3054
METAR KTYQ 170056Z AUTO 27006KT 10SM OVC016 02/00 A3011 A02 3053
METAR KTYQ 162356Z AUTO 26003KT 10SM OVC018 02/01 A3010 A02 3052
METAR KTYQ 162256Z AUTO 26004KT 10SM OVC016 02/01 A3009 A02 3051
METAR KTYQ 162156Z AUTO 25008KT 7SM OVC016 02/02 A3007 A02 3050
METAR KTYQ 162056Z AUTO 27010G15KT 10SM OVC016 03/01 A3005 A02 3049
METAR KTYQ 161956Z AUTO 25011KT 10SM BKN014 BKN019 03/01 A3002 A02 3048
METAR KTYQ 161856Z AUTO 27009KT 10SM OVC020 02/01 A3001 A02 3047
METAR KTYQ 161756Z AUTO 26010KT 7SM BKN011 OVC020 01/00 A3000 A02 3046
METAR KTYQ 161656Z AUTO 24009KT 7SM BKN013 BKN021 OVC030 01/M01 A2999 A02 3045
METAR KTYQ 161556Z AUTO 24007KT 7SM SCT013 BKN018 OVC030 00/M01 A2998 A02 3044
METAR KTYQ 161456Z AUTO 25008KT 7SM OVC017 M01/M02 A2997 A02 3043
METAR KTYQ 161356Z AUTO 23011G22KT 7SM SCT011 SCT024 OVC050 M02/M02 A2995 A02 3042
METAR KTYQ 161256Z AUTO 23011G16KT 7SM SCT010 OVC055 M02/M03 A2993 A02 3041